sensor_id;sensor_type;location;lat;lon;timestamp;P1;durP1;ratioP1;P2;durP2;ratioP2
31043;SDS011;17710;52.520;13.352;2023-04-24T00:00:20;5.18;;;3.40;;
31043;SDS011;17710;52.520;13.352;2023-04-24T00:02:46;6.07;;;3.78;;
31043;SDS011;17710;52.520;13.352;2023-04-24T00:05:14;3.78;;;3.20;;
31043;SDS011;17710;52.520;13.352;2023-04-24T00:07:44;4.80;;;3.80;;
31043;SDS011;17710;52.520;13.352;2023-04-24T00:10:11;4.47;;;3.63;;
31043;SDS011;17710;52.520;13.352;2023-04-24T00:12:38;5.03;;;4.07;;
31043;SDS011;17710;52.520;13.352;2023-04-24T00:15:05;4.30;;;3.85;;
31043;SDS011;17710;52.520;13.352;2023-04-24T00:17:32;4.95;;;4.05;;
31043;SDS011;17710;52.520;13.352;2023-04-24T00:19:58;4.57;;;3.60;;
31043;SDS011;17710;52.520;13.352;2023-04-24T00:22:25;7.82;;;4.03;;
31043;SDS011;17710;52.520;13.352;2023-04-24T00:24:53;6.10;;;4.03;;
31043;SDS011;17710;52.520;13.352;2023-04-24T00:27:19;4.00;;;3.60;;
31043;SDS011;17710;52.520;13.352;2023-04-24T00:29:46;4.57;;;3.80;;
31043;SDS011;17710;52.520;13.352;2023-04-24T00:32:13;5.20;;;4.13;;
31043;SDS011;17710;52.520;13.352;2023-04-24T00:34:40;4.65;;;3.90;;
31043;SDS011;17710;52.520;13.352;2023-04-24T00:37:06;4.72;;;3.88;;
31043;SDS011;17710;52.520;13.352;2023-04-24T00:39:33;7.95;;;4.00;;
31043;SDS011;17710;52.520;13.352;2023-04-24T00:42:01;7.50;;;4.57;;
31043;SDS011;17710;52.520;13.352;2023-04-24T00:44:27;4.22;;;3.70;;
31043;SDS011;17710;52.520;13.352;2023-04-24T00:46:54;4.45;;;3.90;;
31043;SDS011;17710;52.520;13.352;2023-04-24T00:49:21;5.50;;;3.42;;
31043;SDS011;17710;52.520;13.352;2023-04-24T00:51:48;5.22;;;3.72;;
31043;SDS011;17710;52.520;13.352;2023-04-24T00:54:16;4.18;;;3.67;;
31043;SDS011;17710;52.520;13.352;2023-04-24T00:56:42;4.65;;;3.75;;
31043;SDS011;17710;52.520;13.352;2023-04-24T00:59:11;5.35;;;4.32;;
31043;SDS011;17710;52.520;13.352;2023-04-24T01:01:38;5.43;;;3.83;;
31043;SDS011;17710;52.520;13.352;2023-04-24T01:04:06;4.78;;;3.80;;
31043;SDS011;17710;52.520;13.352;2023-04-24T01:06:33;5.57;;;4.30;;
31043;SDS011;17710;52.520;13.352;2023-04-24T01:09:00;4.63;;;4.15;;
31043;SDS011;17710;52.520;13.352;2023-04-24T01:11:27;7.32;;;4.00;;
31043;SDS011;17710;52.520;13.352;2023-04-24T01:13:54;4.28;;;3.53;;
31043;SDS011;17710;52.520;13.352;2023-04-24T01:16:23;6.18;;;3.50;;
31043;SDS011;17710;52.520;13.352;2023-04-24T01:18:50;5.13;;;3.80;;
31043;SDS011;17710;52.520;13.352;2023-04-24T01:21:17;3.67;;;3.33;;
31043;SDS011;17710;52.520;13.352;2023-04-24T01:23:46;5.88;;;3.53;;
31043;SDS011;17710;52.520;13.352;2023-04-24T01:26:13;5.78;;;3.80;;
31043;SDS011;17710;52.520;13.352;2023-04-24T01:28:41;4.65;;;3.80;;
31043;SDS011;17710;52.520;13.352;2023-04-24T01:31:07;4.10;;;3.50;;
31043;SDS011;17710;52.520;13.352;2023-04-24T01:33:34;4.03;;;3.38;;
31043;SDS011;17710;52.520;13.352;2023-04-24T01:36:01;5.75;;;4.10;;
31043;SDS011;17710;52.520;13.352;2023-04-24T01:38:27;7.05;;;4.57;;
31043;SDS011;17710;52.520;13.352;2023-04-24T01:40:55;4.40;;;3.97;;
31043;SDS011;17710;52.520;13.352;2023-04-24T01:43:21;5.50;;;3.95;;
31043;SDS011;17710;52.520;13.352;2023-04-24T01:45:48;4.57;;;4.18;;
31043;SDS011;17710;52.520;13.352;2023-04-24T01:48:14;6.00;;;3.90;;
31043;SDS011;17710;52.520;13.352;2023-04-24T01:50:41;13.13;;;4.78;;
31043;SDS011;17710;52.520;13.352;2023-04-24T01:53:07;4.40;;;3.42;;
31043;SDS011;17710;52.520;13.352;2023-04-24T01:55:33;4.43;;;4.03;;
31043;SDS011;17710;52.520;13.352;2023-04-24T01:58:01;6.65;;;4.35;;
31043;SDS011;17710;52.520;13.352;2023-04-24T02:00:28;4.55;;;3.85;;
31043;SDS011;17710;52.520;13.352;2023-04-24T02:02:54;6.00;;;4.50;;
31043;SDS011;17710;52.520;13.352;2023-04-24T02:05:21;4.57;;;3.90;;
31043;SDS011;17710;52.520;13.352;2023-04-24T02:07:47;6.45;;;3.85;;
31043;SDS011;17710;52.520;13.352;2023-04-24T02:10:14;6.43;;;4.50;;
31043;SDS011;17710;52.520;13.352;2023-04-24T02:12:40;8.35;;;4.00;;
31043;SDS011;17710;52.520;13.352;2023-04-24T02:15:08;6.50;;;4.15;;
31043;SDS011;17710;52.520;13.352;2023-04-24T02:17:35;4.35;;;3.70;;
31043;SDS011;17710;52.520;13.352;2023-04-24T02:20:02;6.07;;;4.05;;
31043;SDS011;17710;52.520;13.352;2023-04-24T02:22:29;5.13;;;4.40;;
31043;SDS011;17710;52.520;13.352;2023-04-24T02:24:56;5.07;;;4.50;;
31043;SDS011;17710;52.520;13.352;2023-04-24T02:27:22;4.65;;;4.15;;
31043;SDS011;17710;52.520;13.352;2023-04-24T02:29:48;5.10;;;4.38;;
31043;SDS011;17710;52.520;13.352;2023-04-24T02:32:16;5.60;;;4.30;;
31043;SDS011;17710;52.520;13.352;2023-04-24T02:34:43;5.28;;;4.10;;
31043;SDS011;17710;52.520;13.352;2023-04-24T02:37:09;4.65;;;4.22;;
31043;SDS011;17710;52.520;13.352;2023-04-24T02:39:35;5.55;;;4.65;;
31043;SDS011;17710;52.520;13.352;2023-04-24T02:42:02;9.25;;;4.85;;
31043;SDS011;17710;52.520;13.352;2023-04-24T02:44:28;6.47;;;4.40;;
31043;SDS011;17710;52.520;13.352;2023-04-24T02:46:55;5.15;;;4.65;;
31043;SDS011;17710;52.520;13.352;2023-04-24T02:49:22;7.32;;;4.43;;
31043;SDS011;17710;52.520;13.352;2023-04-24T02:51:49;5.93;;;4.75;;
31043;SDS011;17710;52.520;13.352;2023-04-24T02:54:15;5.35;;;4.60;;
31043;SDS011;17710;52.520;13.352;2023-04-24T02:56:41;4.53;;;4.07;;
31043;SDS011;17710;52.520;13.352;2023-04-24T02:59:08;5.97;;;4.75;;
31043;SDS011;17710;52.520;13.352;2023-04-24T03:01:35;6.50;;;4.32;;
31043;SDS011;17710;52.520;13.352;2023-04-24T03:04:01;6.80;;;4.68;;
31043;SDS011;17710;52.520;13.352;2023-04-24T03:06:29;5.07;;;4.57;;
31043;SDS011;17710;52.520;13.352;2023-04-24T03:08:57;5.68;;;4.22;;
31043;SDS011;17710;52.520;13.352;2023-04-24T03:11:24;5.50;;;4.55;;
31043;SDS011;17710;52.520;13.352;2023-04-24T03:13:50;5.38;;;4.88;;
31043;SDS011;17710;52.520;13.352;2023-04-24T03:16:17;4.82;;;4.22;;
31043;SDS011;17710;52.520;13.352;2023-04-24T03:18:43;7.60;;;4.82;;
31043;SDS011;17710;52.520;13.352;2023-04-24T03:21:09;5.70;;;4.80;;
31043;SDS011;17710;52.520;13.352;2023-04-24T03:23:37;8.77;;;4.43;;
31043;SDS011;17710;52.520;13.352;2023-04-24T03:26:03;6.50;;;4.63;;
31043;SDS011;17710;52.520;13.352;2023-04-24T03:28:30;5.93;;;4.55;;
31043;SDS011;17710;52.520;13.352;2023-04-24T03:30:56;6.25;;;4.63;;
31043;SDS011;17710;52.520;13.352;2023-04-24T03:33:23;4.75;;;4.30;;
31043;SDS011;17710;52.520;13.352;2023-04-24T03:35:49;8.18;;;4.95;;
31043;SDS011;17710;52.520;13.352;2023-04-24T03:38:16;5.53;;;4.55;;
31043;SDS011;17710;52.520;13.352;2023-04-24T03:40:43;5.70;;;4.70;;
31043;SDS011;17710;52.520;13.352;2023-04-24T03:43:10;5.50;;;4.40;;
31043;SDS011;17710;52.520;13.352;2023-04-24T03:45:36;6.43;;;4.88;;
31043;SDS011;17710;52.520;13.352;2023-04-24T03:48:03;4.97;;;4.47;;
31043;SDS011;17710;52.520;13.352;2023-04-24T03:50:30;5.13;;;4.63;;
31043;SDS011;17710;52.520;13.352;2023-04-24T03:52:56;5.93;;;5.18;;
31043;SDS011;17710;52.520;13.352;2023-04-24T03:55:22;4.85;;;4.43;;
31043;SDS011;17710;52.520;13.352;2023-04-24T03:57:50;7.72;;;4.88;;
31043;SDS011;17710;52.520;13.352;2023-04-24T04:00:17;9.93;;;4.82;;
31043;SDS011;17710;52.520;13.352;2023-04-24T04:02:43;8.00;;;4.63;;
31043;SDS011;17710;52.520;13.352;2023-04-24T04:05:10;10.15;;;4.70;;
31043;SDS011;17710;52.520;13.352;2023-04-24T04:07:36;6.65;;;4.53;;
31043;SDS011;17710;52.520;13.352;2023-04-24T04:10:03;4.68;;;4.25;;
31043;SDS011;17710;52.520;13.352;2023-04-24T04:12:29;4.80;;;4.40;;
31043;SDS011;17710;52.520;13.352;2023-04-24T04:14:57;4.55;;;4.05;;
31043;SDS011;17710;52.520;13.352;2023-04-24T04:17:24;6.70;;;4.13;;
31043;SDS011;17710;52.520;13.352;2023-04-24T04:19:50;7.10;;;4.53;;
31043;SDS011;17710;52.520;13.352;2023-04-24T04:22:17;5.93;;;3.97;;
31043;SDS011;17710;52.520;13.352;2023-04-24T04:24:43;4.93;;;4.38;;
31043;SDS011;17710;52.520;13.352;2023-04-24T04:27:11;5.07;;;4.47;;
31043;SDS011;17710;52.520;13.352;2023-04-24T04:29:37;7.10;;;4.78;;
31043;SDS011;17710;52.520;13.352;2023-04-24T04:32:06;6.80;;;4.63;;
31043;SDS011;17710;52.520;13.352;2023-04-24T04:34:32;5.10;;;3.90;;
31043;SDS011;17710;52.520;13.352;2023-04-24T04:36:59;6.22;;;4.05;;
31043;SDS011;17710;52.520;13.352;2023-04-24T04:39:27;5.00;;;3.80;;
31043;SDS011;17710;52.520;13.352;2023-04-24T04:41:54;6.57;;;4.25;;
31043;SDS011;17710;52.520;13.352;2023-04-24T04:44:21;4.57;;;4.00;;
31043;SDS011;17710;52.520;13.352;2023-04-24T04:46:48;3.92;;;3.53;;
31043;SDS011;17710;52.520;13.352;2023-04-24T04:49:16;8.35;;;4.20;;
31043;SDS011;17710;52.520;13.352;2023-04-24T04:51:43;4.22;;;3.78;;
31043;SDS011;17710;52.520;13.352;2023-04-24T04:54:10;5.47;;;3.97;;
31043;SDS011;17710;52.520;13.352;2023-04-24T04:56:36;5.68;;;3.28;;
31043;SDS011;17710;52.520;13.352;2023-04-24T04:59:02;6.32;;;3.90;;
31043;SDS011;17710;52.520;13.352;2023-04-24T05:01:29;5.80;;;3.95;;
31043;SDS011;17710;52.520;13.352;2023-04-24T05:03:55;5.38;;;3.78;;
31043;SDS011;17710;52.520;13.352;2023-04-24T05:06:23;3.42;;;3.13;;
31043;SDS011;17710;52.520;13.352;2023-04-24T05:08:50;3.55;;;3.15;;
31043;SDS011;17710;52.520;13.352;2023-04-24T05:11:21;5.43;;;3.40;;
31043;SDS011;17710;52.520;13.352;2023-04-24T05:13:47;5.55;;;3.33;;
31043;SDS011;17710;52.520;13.352;2023-04-24T05:16:13;4.05;;;3.30;;
31043;SDS011;17710;52.520;13.352;2023-04-24T05:18:40;7.10;;;3.65;;
31043;SDS011;17710;52.520;13.352;2023-04-24T05:21:06;6.15;;;3.40;;
31043;SDS011;17710;52.520;13.352;2023-04-24T05:23:34;4.28;;;3.03;;
31043;SDS011;17710;52.520;13.352;2023-04-24T05:26:01;4.38;;;3.05;;
31043;SDS011;17710;52.520;13.352;2023-04-24T05:28:27;3.67;;;2.75;;
31043;SDS011;17710;52.520;13.352;2023-04-24T05:30:54;3.60;;;2.67;;
31043;SDS011;17710;52.520;13.352;2023-04-24T05:33:21;4.15;;;2.80;;
31043;SDS011;17710;52.520;13.352;2023-04-24T05:35:48;3.17;;;2.40;;
31043;SDS011;17710;52.520;13.352;2023-04-24T05:38:14;9.00;;;2.50;;
31043;SDS011;17710;52.520;13.352;2023-04-24T05:40:44;8.80;;;2.83;;
31043;SDS011;17710;52.520;13.352;2023-04-24T05:43:10;3.40;;;2.60;;
31043;SDS011;17710;52.520;13.352;2023-04-24T05:45:37;2.25;;;2.05;;
31043;SDS011;17710;52.520;13.352;2023-04-24T05:48:03;5.07;;;2.40;;
31043;SDS011;17710;52.520;13.352;2023-04-24T05:50:31;2.58;;;2.38;;
31043;SDS011;17710;52.520;13.352;2023-04-24T05:52:57;2.20;;;2.00;;
31043;SDS011;17710;52.520;13.352;2023-04-24T05:55:24;3.83;;;1.90;;
31043;SDS011;17710;52.520;13.352;2023-04-24T05:57:52;3.05;;;1.83;;
31043;SDS011;17710;52.520;13.352;2023-04-24T06:00:18;6.18;;;2.00;;
31043;SDS011;17710;52.520;13.352;2023-04-24T06:02:46;3.92;;;2.03;;
31043;SDS011;17710;52.520;13.352;2023-04-24T06:05:13;1.95;;;1.80;;
31043;SDS011;17710;52.520;13.352;2023-04-24T06:07:39;4.65;;;1.95;;
31043;SDS011;17710;52.520;13.352;2023-04-24T06:10:06;6.63;;;2.15;;
31043;SDS011;17710;52.520;13.352;2023-04-24T06:12:34;27.08;;;3.22;;
31043;SDS011;17710;52.520;13.352;2023-04-24T06:15:01;1.73;;;1.58;;
31043;SDS011;17710;52.520;13.352;2023-04-24T06:17:28;2.08;;;1.88;;
31043;SDS011;17710;52.520;13.352;2023-04-24T06:19:55;2.30;;;2.00;;
31043;SDS011;17710;52.520;13.352;2023-04-24T06:22:21;3.05;;;1.42;;
31043;SDS011;17710;52.520;13.352;2023-04-24T06:24:48;2.70;;;1.60;;
31043;SDS011;17710;52.520;13.352;2023-04-24T06:27:14;2.42;;;1.35;;
31043;SDS011;17710;52.520;13.352;2023-04-24T06:29:41;2.53;;;1.40;;
31043;SDS011;17710;52.520;13.352;2023-04-24T06:32:08;3.70;;;1.38;;
31043;SDS011;17710;52.520;13.352;2023-04-24T06:34:37;2.03;;;1.40;;
31043;SDS011;17710;52.520;13.352;2023-04-24T06:37:04;1.88;;;1.10;;
31043;SDS011;17710;52.520;13.352;2023-04-24T06:39:30;2.80;;;1.17;;
31043;SDS011;17710;52.520;13.352;2023-04-24T06:41:57;1.38;;;1.20;;
31043;SDS011;17710;52.520;13.352;2023-04-24T06:44:24;2.15;;;0.98;;
31043;SDS011;17710;52.520;13.352;2023-04-24T06:46:50;5.60;;;1.17;;
31043;SDS011;17710;52.520;13.352;2023-04-24T06:49:18;0.80;;;0.80;;
31043;SDS011;17710;52.520;13.352;2023-04-24T06:51:45;2.83;;;0.93;;
31043;SDS011;17710;52.520;13.352;2023-04-24T06:54:11;2.60;;;1.30;;
31043;SDS011;17710;52.520;13.352;2023-04-24T06:56:37;3.40;;;0.80;;
31043;SDS011;17710;52.520;13.352;2023-04-24T06:59:04;1.08;;;0.70;;
31043;SDS011;17710;52.520;13.352;2023-04-24T07:01:30;0.60;;;0.60;;
31043;SDS011;17710;52.520;13.352;2023-04-24T07:03:57;2.50;;;0.65;;
31043;SDS011;17710;52.520;13.352;2023-04-24T07:06:25;1.20;;;0.75;;
31043;SDS011;17710;52.520;13.352;2023-04-24T07:08:52;0.63;;;0.63;;
31043;SDS011;17710;52.520;13.352;2023-04-24T07:11:18;2.78;;;0.77;;
31043;SDS011;17710;52.520;13.352;2023-04-24T07:13:45;2.53;;;0.60;;
31043;SDS011;17710;52.520;13.352;2023-04-24T07:16:11;1.85;;;0.60;;
31043;SDS011;17710;52.520;13.352;2023-04-24T07:18:38;1.00;;;0.80;;
31043;SDS011;17710;52.520;13.352;2023-04-24T07:21:04;0.70;;;0.60;;
31043;SDS011;17710;52.520;13.352;2023-04-24T07:23:32;1.05;;;0.50;;
31043;SDS011;17710;52.520;13.352;2023-04-24T07:25:59;1.13;;;0.40;;
31043;SDS011;17710;52.520;13.352;2023-04-24T07:28:25;1.85;;;0.60;;
31043;SDS011;17710;52.520;13.352;2023-04-24T07:30:51;1.30;;;0.60;;
31043;SDS011;17710;52.520;13.352;2023-04-24T07:33:18;1.27;;;0.50;;
31043;SDS011;17710;52.520;13.352;2023-04-24T07:35:45;1.60;;;0.50;;
31043;SDS011;17710;52.520;13.352;2023-04-24T07:38:11;0.50;;;0.40;;
31043;SDS011;17710;52.520;13.352;2023-04-24T07:40:39;1.27;;;0.47;;
31043;SDS011;17710;52.520;13.352;2023-04-24T07:43:06;2.58;;;0.60;;
31043;SDS011;17710;52.520;13.352;2023-04-24T07:45:32;1.50;;;0.70;;
31043;SDS011;17710;52.520;13.352;2023-04-24T07:48:02;3.03;;;0.65;;
31043;SDS011;17710;52.520;13.352;2023-04-24T07:50:28;0.43;;;0.40;;
31043;SDS011;17710;52.520;13.352;2023-04-24T07:52:55;2.17;;;0.40;;
31043;SDS011;17710;52.520;13.352;2023-04-24T07:55:21;0.50;;;0.40;;
31043;SDS011;17710;52.520;13.352;2023-04-24T07:57:49;0.55;;;0.20;;
31043;SDS011;17710;52.520;13.352;2023-04-24T08:00:16;1.20;;;0.47;;
31043;SDS011;17710;52.520;13.352;2023-04-24T08:02:42;0.80;;;0.40;;
31043;SDS011;17710;52.520;13.352;2023-04-24T08:05:09;0.85;;;0.30;;
31043;SDS011;17710;52.520;13.352;2023-04-24T08:07:35;2.83;;;0.32;;
31043;SDS011;17710;52.520;13.352;2023-04-24T08:10:02;0.63;;;0.35;;
31043;SDS011;17710;52.520;13.352;2023-04-24T08:12:29;0.60;;;0.30;;
31043;SDS011;17710;52.520;13.352;2023-04-24T08:14:57;1.30;;;0.50;;
31043;SDS011;17710;52.520;13.352;2023-04-24T08:17:23;3.15;;;0.50;;
31043;SDS011;17710;52.520;13.352;2023-04-24T08:19:50;2.40;;;0.40;;
31043;SDS011;17710;52.520;13.352;2023-04-24T08:22:18;2.03;;;0.38;;
31043;SDS011;17710;52.520;13.352;2023-04-24T08:24:44;1.88;;;0.40;;
31043;SDS011;17710;52.520;13.352;2023-04-24T08:27:11;0.45;;;0.32;;
31043;SDS011;17710;52.520;13.352;2023-04-24T08:29:37;1.15;;;0.28;;
31043;SDS011;17710;52.520;13.352;2023-04-24T08:32:05;3.15;;;0.43;;
31043;SDS011;17710;52.520;13.352;2023-04-24T08:34:31;0.52;;;0.50;;
31043;SDS011;17710;52.520;13.352;2023-04-24T08:36:58;5.75;;;2.42;;
31043;SDS011;17710;52.520;13.352;2023-04-24T08:39:24;3.25;;;0.45;;
31043;SDS011;17710;52.520;13.352;2023-04-24T08:41:51;0.30;;;0.28;;
31043;SDS011;17710;52.520;13.352;2023-04-24T08:44:19;2.90;;;0.98;;
31043;SDS011;17710;52.520;13.352;2023-04-24T08:46:46;2.00;;;0.20;;
31043;SDS011;17710;52.520;13.352;2023-04-24T08:49:15;0.40;;;0.30;;
31043;SDS011;17710;52.520;13.352;2023-04-24T08:51:42;2.28;;;0.40;;
31043;SDS011;17710;52.520;13.352;2023-04-24T08:54:08;2.13;;;0.40;;
31043;SDS011;17710;52.520;13.352;2023-04-24T08:56:35;2.75;;;0.40;;
31043;SDS011;17710;52.520;13.352;2023-04-24T08:59:04;0.30;;;0.20;;
31043;SDS011;17710;52.520;13.352;2023-04-24T09:01:31;3.17;;;0.38;;
31043;SDS011;17710;52.520;13.352;2023-04-24T09:04:01;1.85;;;0.40;;
31043;SDS011;17710;52.520;13.352;2023-04-24T09:06:30;2.92;;;0.60;;
31043;SDS011;17710;52.520;13.352;2023-04-24T09:08:58;0.63;;;0.38;;
31043;SDS011;17710;52.520;13.352;2023-04-24T09:11:27;0.85;;;0.22;;
31043;SDS011;17710;52.520;13.352;2023-04-24T09:13:53;0.57;;;0.50;;
31043;SDS011;17710;52.520;13.352;2023-04-24T09:16:20;2.05;;;0.30;;
31043;SDS011;17710;52.520;13.352;2023-04-24T09:18:48;2.20;;;0.50;;
31043;SDS011;17710;52.520;13.352;2023-04-24T09:21:14;1.50;;;0.70;;
31043;SDS011;17710;52.520;13.352;2023-04-24T09:23:42;0.60;;;0.30;;
31043;SDS011;17710;52.520;13.352;2023-04-24T09:26:09;0.65;;;0.40;;
31043;SDS011;17710;52.520;13.352;2023-04-24T09:28:37;2.05;;;0.50;;
31043;SDS011;17710;52.520;13.352;2023-04-24T09:31:05;1.77;;;0.55;;
31043;SDS011;17710;52.520;13.352;2023-04-24T09:33:34;2.35;;;0.75;;
31043;SDS011;17710;52.520;13.352;2023-04-24T09:36:01;2.38;;;0.60;;
31043;SDS011;17710;52.520;13.352;2023-04-24T09:38:31;0.68;;;0.40;;
31043;SDS011;17710;52.520;13.352;2023-04-24T09:41:00;1.20;;;0.55;;
31043;SDS011;17710;52.520;13.352;2023-04-24T09:43:28;2.95;;;0.65;;
31043;SDS011;17710;52.520;13.352;2023-04-24T09:45:55;1.50;;;0.60;;
31043;SDS011;17710;52.520;13.352;2023-04-24T09:48:29;0.88;;;0.43;;
31043;SDS011;17710;52.520;13.352;2023-04-24T09:50:56;1.02;;;0.50;;
31043;SDS011;17710;52.520;13.352;2023-04-24T09:53:23;1.77;;;0.90;;
31043;SDS011;17710;52.520;13.352;2023-04-24T09:55:50;2.25;;;0.50;;
31043;SDS011;17710;52.520;13.352;2023-04-24T09:58:19;2.88;;;0.63;;
31043;SDS011;17710;52.520;13.352;2023-04-24T10:00:53;5.80;;;0.57;;
31043;SDS011;17710;52.520;13.352;2023-04-24T10:03:19;1.10;;;0.68;;
31043;SDS011;17710;52.520;13.352;2023-04-24T10:05:46;1.80;;;0.68;;
31043;SDS011;17710;52.520;13.352;2023-04-24T10:08:13;5.25;;;0.38;;
31043;SDS011;17710;52.520;13.352;2023-04-24T10:10:40;2.42;;;0.63;;
31043;SDS011;17710;52.520;13.352;2023-04-24T10:13:08;3.20;;;0.55;;
31043;SDS011;17710;52.520;13.352;2023-04-24T10:15:39;0.63;;;0.40;;
31043;SDS011;17710;52.520;13.352;2023-04-24T10:18:07;3.00;;;0.43;;
31043;SDS011;17710;52.520;13.352;2023-04-24T10:20:35;2.53;;;0.50;;
31043;SDS011;17710;52.520;13.352;2023-04-24T10:23:03;0.65;;;0.38;;
31043;SDS011;17710;52.520;13.352;2023-04-24T10:25:30;0.45;;;0.45;;
31043;SDS011;17710;52.520;13.352;2023-04-24T10:27:58;1.63;;;0.60;;
31043;SDS011;17710;52.520;13.352;2023-04-24T10:30:26;1.85;;;0.90;;
31043;SDS011;17710;52.520;13.352;2023-04-24T10:32:55;2.70;;;0.75;;
31043;SDS011;17710;52.520;13.352;2023-04-24T10:35:22;2.60;;;0.80;;
31043;SDS011;17710;52.520;13.352;2023-04-24T10:37:53;3.03;;;0.50;;
31043;SDS011;17710;52.520;13.352;2023-04-24T10:40:25;3.38;;;0.75;;
31043;SDS011;17710;52.520;13.352;2023-04-24T10:42:53;1.20;;;0.63;;
31043;SDS011;17710;52.520;13.352;2023-04-24T10:45:20;2.03;;;0.55;;
31043;SDS011;17710;52.520;13.352;2023-04-24T10:47:51;0.45;;;0.40;;
31043;SDS011;17710;52.520;13.352;2023-04-24T10:50:19;2.13;;;0.50;;
31043;SDS011;17710;52.520;13.352;2023-04-24T10:52:46;6.40;;;0.77;;
31043;SDS011;17710;52.520;13.352;2023-04-24T10:55:13;2.42;;;0.50;;
31043;SDS011;17710;52.520;13.352;2023-04-24T10:57:40;2.15;;;0.63;;
31043;SDS011;17710;52.520;13.352;2023-04-24T11:00:28;2.58;;;0.60;;
31043;SDS011;17710;52.520;13.352;2023-04-24T11:02:55;1.45;;;0.55;;
31043;SDS011;17710;52.520;13.352;2023-04-24T11:05:23;5.07;;;0.73;;
31043;SDS011;17710;52.520;13.352;2023-04-24T11:08:16;2.17;;;0.60;;
31043;SDS011;17710;52.520;13.352;2023-04-24T11:10:54;0.30;;;0.28;;
31043;SDS011;17710;52.520;13.352;2023-04-24T11:13:23;1.77;;;0.50;;
31043;SDS011;17710;52.520;13.352;2023-04-24T11:18:49;0.98;;;0.47;;
31043;SDS011;17710;52.520;13.352;2023-04-24T11:21:19;1.52;;;0.55;;
31043;SDS011;17710;52.520;13.352;2023-04-24T11:23:46;4.78;;;0.60;;
31043;SDS011;17710;52.520;13.352;2023-04-24T11:26:13;1.38;;;0.52;;
31043;SDS011;17710;52.520;13.352;2023-04-24T11:28:45;1.00;;;0.70;;
31043;SDS011;17710;52.520;13.352;2023-04-24T11:34:08;2.13;;;0.70;;
31043;SDS011;17710;52.520;13.352;2023-04-24T11:36:36;2.28;;;0.60;;
31043;SDS011;17710;52.520;13.352;2023-04-24T11:39:03;4.05;;;0.68;;
31043;SDS011;17710;52.520;13.352;2023-04-24T11:41:29;2.58;;;0.70;;
31043;SDS011;17710;52.520;13.352;2023-04-24T11:43:57;2.50;;;0.77;;
31043;SDS011;17710;52.520;13.352;2023-04-24T11:46:26;3.63;;;0.60;;
31043;SDS011;17710;52.520;13.352;2023-04-24T11:48:54;4.40;;;0.60;;
31043;SDS011;17710;52.520;13.352;2023-04-24T11:51:22;3.97;;;0.60;;
31043;SDS011;17710;52.520;13.352;2023-04-24T11:53:48;1.67;;;0.70;;
31043;SDS011;17710;52.520;13.352;2023-04-24T11:56:17;1.02;;;0.40;;
31043;SDS011;17710;52.520;13.352;2023-04-24T11:58:44;1.63;;;0.60;;
31043;SDS011;17710;52.520;13.352;2023-04-24T12:01:13;1.10;;;0.50;;
31043;SDS011;17710;52.520;13.352;2023-04-24T12:03:40;1.27;;;0.45;;
31043;SDS011;17710;52.520;13.352;2023-04-24T12:06:08;1.63;;;0.70;;
31043;SDS011;17710;52.520;13.352;2023-04-24T12:08:36;2.00;;;0.43;;
31043;SDS011;17710;52.520;13.352;2023-04-24T12:11:02;2.75;;;0.80;;
31043;SDS011;17710;52.520;13.352;2023-04-24T12:13:32;1.10;;;0.50;;
31043;SDS011;17710;52.520;13.352;2023-04-24T12:15:58;1.52;;;0.60;;
31043;SDS011;17710;52.520;13.352;2023-04-24T12:18:26;1.67;;;0.45;;
31043;SDS011;17710;52.520;13.352;2023-04-24T12:20:53;2.05;;;0.50;;
31043;SDS011;17710;52.520;13.352;2023-04-24T12:23:32;6.82;;;0.60;;
31043;SDS011;17710;52.520;13.352;2023-04-24T12:25:59;3.47;;;0.82;;
31043;SDS011;17710;52.520;13.352;2023-04-24T12:28:33;10.63;;;0.75;;
31043;SDS011;17710;52.520;13.352;2023-04-24T12:31:01;2.08;;;0.70;;
31043;SDS011;17710;52.520;13.352;2023-04-24T12:33:32;1.58;;;0.40;;
31043;SDS011;17710;52.520;13.352;2023-04-24T12:35:59;2.10;;;0.30;;
31043;SDS011;17710;52.520;13.352;2023-04-24T12:38:27;3.97;;;0.57;;
31043;SDS011;17710;52.520;13.352;2023-04-24T12:41:04;2.92;;;1.30;;
31043;SDS011;17710;52.520;13.352;2023-04-24T12:43:31;4.93;;;0.70;;
31043;SDS011;17710;52.520;13.352;2023-04-24T12:45:58;0.25;;;0.25;;
31043;SDS011;17710;52.520;13.352;2023-04-24T12:48:27;7.32;;;0.57;;
31043;SDS011;17710;52.520;13.352;2023-04-24T12:50:56;0.65;;;0.30;;
31043;SDS011;17710;52.520;13.352;2023-04-24T12:53:25;0.55;;;0.40;;
31043;SDS011;17710;52.520;13.352;2023-04-24T12:55:55;2.50;;;0.40;;
31043;SDS011;17710;52.520;13.352;2023-04-24T12:58:21;2.67;;;0.60;;
31043;SDS011;17710;52.520;13.352;2023-04-24T13:00:48;4.03;;;0.30;;
31043;SDS011;17710;52.520;13.352;2023-04-24T13:03:14;0.50;;;0.32;;
31043;SDS011;17710;52.520;13.352;2023-04-24T13:05:43;1.60;;;0.40;;
31043;SDS011;17710;52.520;13.352;2023-04-24T13:08:09;8.68;;;0.70;;
31043;SDS011;17710;52.520;13.352;2023-04-24T13:10:36;2.30;;;0.57;;
31043;SDS011;17710;52.520;13.352;2023-04-24T13:13:02;5.10;;;0.77;;
31043;SDS011;17710;52.520;13.352;2023-04-24T13:15:29;0.80;;;0.40;;
31043;SDS011;17710;52.520;13.352;2023-04-24T13:17:55;3.00;;;0.60;;
31043;SDS011;17710;52.520;13.352;2023-04-24T13:20:22;3.13;;;0.30;;
31043;SDS011;17710;52.520;13.352;2023-04-24T13:22:50;0.80;;;0.45;;
31043;SDS011;17710;52.520;13.352;2023-04-24T13:25:16;0.50;;;0.50;;
31043;SDS011;17710;52.520;13.352;2023-04-24T13:27:44;0.73;;;0.40;;
31043;SDS011;17710;52.520;13.352;2023-04-24T13:30:10;3.80;;;0.45;;
31043;SDS011;17710;52.520;13.352;2023-04-24T13:32:37;1.00;;;0.52;;
31043;SDS011;17710;52.520;13.352;2023-04-24T13:35:04;0.75;;;0.40;;
31043;SDS011;17710;52.520;13.352;2023-04-24T13:37:30;1.15;;;0.40;;
31043;SDS011;17710;52.520;13.352;2023-04-24T13:39:58;0.47;;;0.45;;
31043;SDS011;17710;52.520;13.352;2023-04-24T13:42:24;1.92;;;0.93;;
31043;SDS011;17710;52.520;13.352;2023-04-24T13:44:51;1.45;;;0.40;;
31043;SDS011;17710;52.520;13.352;2023-04-24T13:47:19;4.07;;;0.55;;
31043;SDS011;17710;52.520;13.352;2023-04-24T13:49:45;1.90;;;0.82;;
31043;SDS011;17710;52.520;13.352;2023-04-24T13:52:11;1.45;;;0.50;;
31043;SDS011;17710;52.520;13.352;2023-04-24T13:54:39;0.50;;;0.32;;
31043;SDS011;17710;52.520;13.352;2023-04-24T13:57:06;1.83;;;0.68;;
31043;SDS011;17710;52.520;13.352;2023-04-24T13:59:33;4.07;;;0.50;;
31043;SDS011;17710;52.520;13.352;2023-04-24T14:01:59;1.38;;;0.60;;
31043;SDS011;17710;52.520;13.352;2023-04-24T14:04:26;1.73;;;0.40;;
31043;SDS011;17710;52.520;13.352;2023-04-24T14:06:52;5.43;;;0.60;;
31043;SDS011;17710;52.520;13.352;2023-04-24T14:09:18;0.77;;;0.40;;
31043;SDS011;17710;52.520;13.352;2023-04-24T14:11:45;2.75;;;0.60;;
31043;SDS011;17710;52.520;13.352;2023-04-24T14:14:12;1.10;;;0.30;;
31043;SDS011;17710;52.520;13.352;2023-04-24T14:16:39;0.85;;;0.52;;
31043;SDS011;17710;52.520;13.352;2023-04-24T14:19:05;1.42;;;0.40;;
31043;SDS011;17710;52.520;13.352;2023-04-24T14:21:32;1.23;;;0.50;;
31043;SDS011;17710;52.520;13.352;2023-04-24T14:23:58;1.00;;;0.45;;
31043;SDS011;17710;52.520;13.352;2023-04-24T14:26:25;0.52;;;0.38;;
31043;SDS011;17710;52.520;13.352;2023-04-24T14:28:51;7.90;;;0.70;;
31043;SDS011;17710;52.520;13.352;2023-04-24T14:31:21;0.90;;;0.57;;
31043;SDS011;17710;52.520;13.352;2023-04-24T14:33:47;0.32;;;0.32;;
31043;SDS011;17710;52.520;13.352;2023-04-24T14:36:14;1.27;;;0.40;;
31043;SDS011;17710;52.520;13.352;2023-04-24T14:38:40;3.35;;;0.57;;